Twr-7 — TWR-7 — position and weather

sailwx.info

Track history (hours):
 
Tides and Currents Weather Stations Pressure Air Temp Water Temp Dewpoint Dewpoint Depression Visibility Wind Speed Wind Dir Waves Ship Positions

Twr-7

Last reported at 2014-Oct-18 21:33 UTC. Time now 2014-Oct-21 11:59 UTC.
Position N 47°44' W 122°44'.

; draft 1.5 m.

Type: Military. MMSI: 369970258.

Date/timePositionNaut miles runAvg speedWind from/ knotsBaromVisibWave heightAir tempDewpointWater temp
2014-Oct-18 21:33N 47°44' W 122°44'4013.1
2014-Oct-18 18:32N 48°22' W 123°02'1717.3
2014-Oct-18 17:33N 48°37' W 123°14'1817.4
2014-Oct-18 16:33N 48°53' W 123°26'1817.8
2014-Oct-18 15:32N 49°06' W 123°45'1414.0
2014-Oct-18 14:34N 49°15' W 123°60'6 6.2
2014-Oct-18 13:33N 49°16' W 124°09'0 0.0
2014-Oct-18 12:33N 49°16' W 124°09'0 0.0
2014-Oct-18 11:33N 49°16' W 124°09'0 0.0
2014-Oct-18 10:33N 49°16' W 124°09'0 0.0
2014-Oct-18 09:33N 49°16' W 124°09'0 0.0
2014-Oct-18 08:33N 49°16' W 124°09'0 0.0
2014-Oct-18 07:33N 49°16' W 124°09'0 0.0
2014-Oct-18 06:33N 49°16' W 124°09'0 0.0
2014-Oct-18 05:32N 49°16' W 124°09'0 0.0
2014-Oct-18 04:32N 49°16' W 124°09'0 0.0
2014-Oct-18 03:33N 49°16' W 124°09'0 0.0
2014-Oct-18 02:29N 49°16' W 124°09'0 0.0
2014-Oct-18 01:32N 49°16' W 124°09'0 0.0
2014-Oct-18 00:31N 49°16' W 124°09'0 0.0
2014-Oct-17 23:33N 49°16' W 124°09'0 0.0
2014-Oct-17 22:33N 49°16' W 124°09'0 0.0
2014-Oct-17 21:33N 49°16' W 124°09'0 0.0
2014-Oct-17 20:33N 49°16' W 124°09'0 0.0
2014-Oct-17 19:33N 49°16' W 124°09'0 0.0
2014-Oct-17 18:33N 49°16' W 124°09'1 1.3
2014-Oct-17 17:33N 49°16' W 124°07'7 7.2
2014-Oct-17 16:33N 49°21' W 124°00'3 3.4
2014-Oct-17 15:33N 49°18' W 123°57'7 6.7
2014-Oct-17 14:33N 49°16' W 124°07'1 0.1
2014-Oct-16 19:09N 49°16' W 124°09'3 5.2
2014-Oct-16 18:33N 49°18' W 124°05'2 2.2
2014-Oct-16 17:34N 49°18' W 124°02'2 2.4
2014-Oct-16 16:34N 49°17' W 124°05'3 0.2
2014-Oct-16 01:20N 49°16' W 124°09'8 9.6
2014-Oct-16 00:29N 49°19' W 123°57'5155.0
2014-Oct-15 23:33N 50°10' W 123°57'5250.4
2014-Oct-15 22:31N 49°18' W 123°55'2 2.5
2014-Oct-15 21:31N 49°19' W 123°59'2 2.4
2014-Oct-15 20:33N 49°21' W 123°58'2 2.4
2014-Oct-15 19:33N 49°19' W 123°60'3 3.2
2014-Oct-15 18:32N 49°21' W 123°56'0 0.4
2014-Oct-15 17:33N 49°21' W 123°57'1 0.8
2014-Oct-15 16:31N 49°21' W 123°58'9 9.2
2014-Oct-15 15:33N 49°16' W 124°09'0 0.1
2014-Oct-15 14:30N 49°16' W 124°09'  
Track history (hours):
 
Tides and Currents Weather Stations Pressure Air Temp Water Temp Dewpoint Dewpoint Depression Visibility Wind Speed Wind Dir Waves Ship Positions

Twr-7

Last reported at 2014-Oct-18 21:33 UTC. Time now 2014-Oct-21 11:59 UTC.
Position N 47°44' W 122°44'.

; draft 1.5 m.

Type: Military. MMSI: 369970258.

Date/timePositionNaut miles runAvg speedWind from/ knotsBaromVisibWave heightAir tempDewpointWater temp
2014-Oct-18 21:33N 47°44' W 122°44'4013.1
2014-Oct-18 18:32N 48°22' W 123°02'1717.3
2014-Oct-18 17:33N 48°37' W 123°14'1817.4
2014-Oct-18 16:33N 48°53' W 123°26'1817.8
2014-Oct-18 15:32N 49°06' W 123°45'1414.0
2014-Oct-18 14:34N 49°15' W 123°60'6 6.2
2014-Oct-18 13:33N 49°16' W 124°09'0 0.0
2014-Oct-18 12:33N 49°16' W 124°09'0 0.0
2014-Oct-18 11:33N 49°16' W 124°09'0 0.0
2014-Oct-18 10:33N 49°16' W 124°09'0 0.0
2014-Oct-18 09:33N 49°16' W 124°09'0 0.0
2014-Oct-18 08:33N 49°16' W 124°09'0 0.0
2014-Oct-18 07:33N 49°16' W 124°09'0 0.0
2014-Oct-18 06:33N 49°16' W 124°09'0 0.0
2014-Oct-18 05:32N 49°16' W 124°09'0 0.0
2014-Oct-18 04:32N 49°16' W 124°09'0 0.0
2014-Oct-18 03:33N 49°16' W 124°09'0 0.0
2014-Oct-18 02:29N 49°16' W 124°09'0 0.0
2014-Oct-18 01:32N 49°16' W 124°09'0 0.0
2014-Oct-18 00:31N 49°16' W 124°09'0 0.0
2014-Oct-17 23:33N 49°16' W 124°09'0 0.0
2014-Oct-17 22:33N 49°16' W 124°09'0 0.0
2014-Oct-17 21:33N 49°16' W 124°09'0 0.0
2014-Oct-17 20:33N 49°16' W 124°09'0 0.0
2014-Oct-17 19:33N 49°16' W 124°09'0 0.0
2014-Oct-17 18:33N 49°16' W 124°09'1 1.3
2014-Oct-17 17:33N 49°16' W 124°07'7 7.2
2014-Oct-17 16:33N 49°21' W 124°00'3 3.4
2014-Oct-17 15:33N 49°18' W 123°57'7 6.7
2014-Oct-17 14:33N 49°16' W 124°07'1 0.1
2014-Oct-16 19:09N 49°16' W 124°09'3 5.2
2014-Oct-16 18:33N 49°18' W 124°05'2 2.2
2014-Oct-16 17:34N 49°18' W 124°02'2 2.4
2014-Oct-16 16:34N 49°17' W 124°05'3 0.2
2014-Oct-16 01:20N 49°16' W 124°09'8 9.6
2014-Oct-16 00:29N 49°19' W 123°57'5155.0
2014-Oct-15 23:33N 50°10' W 123°57'5250.4
2014-Oct-15 22:31N 49°18' W 123°55'2 2.5
2014-Oct-15 21:31N 49°19' W 123°59'2 2.4
2014-Oct-15 20:33N 49°21' W 123°58'2 2.4
2014-Oct-15 19:33N 49°19' W 123°60'3 3.2
2014-Oct-15 18:32N 49°21' W 123°56'0 0.4
2014-Oct-15 17:33N 49°21' W 123°57'1 0.8
2014-Oct-15 16:31N 49°21' W 123°58'9 9.2
2014-Oct-15 15:33N 49°16' W 124°09'0 0.1
2014-Oct-15 14:30N 49°16' W 124°09'  

Dump ship's entire track history